Time;durP1;ratioP1;P1;durP2;ratioP2;P2;SDS_P1;SDS_P2;PMS_P1;PMS_P2;Temp;Humidity;BMP_temperature;BMP_pressure;BME280_temperature;BME280_humidity;BME280_pressure;Samples;Min_cycle;Max_cycle;Signal;HPM_P1;HPM_P2
2023/06/23 00:02:06;;;;;;;25.88;17.40;;;;;;;;;;10205595;29;20028;-87
2023/06/23 00:07:07;;;;;;;25.60;17.20;;;;;;;;;;10200139;29;20032;-86
2023/06/23 00:12:09;;;;;;;22.85;16.23;;;;;;;;;;10209297;29;20032;-87
2023/06/23 00:17:10;;;;;;;19.45;16.13;;;;;;;;;;10191671;29;20044;-87
2023/06/23 00:22:11;;;;;;;26.20;15.75;;;;;;;;;;10202639;29;20035;-88
2023/06/23 00:27:12;;;;;;;21.42;15.75;;;;;;;;;;10208815;29;20035;-87
2023/06/23 00:32:13;;;;;;;19.85;15.45;;;;;;;;;;10208534;29;20059;-86
2023/06/23 00:37:14;;;;;;;19.98;15.10;;;;;;;;;;10207895;29;20044;-86
2023/06/23 00:42:15;;;;;;;22.88;15.23;;;;;;;;;;10190557;29;20654;-86
2023/06/23 00:47:16;;;;;;;18.65;14.32;;;;;;;;;;10189851;29;20034;-87
2023/06/23 00:52:17;;;;;;;23.27;16.77;;;;;;;;;;10207916;29;20063;-86
2023/06/23 00:57:18;;;;;;;22.08;15.43;;;;;;;;;;10189672;29;20040;-86
2023/06/23 01:02:20;;;;;;;19.08;14.52;;;;;;;;;;10201081;29;20472;-87
2023/06/23 01:07:27;;;;;;;24.50;17.02;;;;;;;;;;10199456;29;20142;-86
2023/06/23 01:12:39;;;;;;;28.83;18.13;;;;;;;;;;10189134;29;20050;-86
2023/06/23 01:17:42;;;;;;;24.20;16.98;;;;;;;;;;10206181;29;20036;-87
2023/06/23 01:22:46;;;;;;;25.38;16.60;;;;;;;;;;10206359;29;20038;-86
2023/06/23 01:28:06;;;;;;;24.15;16.05;;;;;;;;;;10188395;29;20135;-86
2023/06/23 01:33:09;;;;;;;23.08;16.27;;;;;;;;;;10205269;29;20023;-86
2023/06/23 01:38:28;;;;;;;27.25;17.55;;;;;;;;;;10205347;29;20082;-87
2023/06/23 01:43:30;;;;;;;25.48;18.02;;;;;;;;;;10187863;29;20036;-87
2023/06/23 01:48:37;;;;;;;26.02;18.23;;;;;;;;;;10188126;29;20523;-87
2023/06/23 01:53:38;;;;;;;26.00;18.23;;;;;;;;;;10187601;29;20031;-85
2023/06/23 01:58:40;;;;;;;29.38;19.17;;;;;;;;;;10204154;29;20043;-87
2023/06/23 02:03:41;;;;;;;25.88;17.95;;;;;;;;;;10204376;29;20023;-86
2023/06/23 02:08:42;;;;;;;26.35;18.50;;;;;;;;;;10204851;29;20019;-86
2023/06/23 02:13:45;;;;;;;23.73;17.35;;;;;;;;;;10204903;29;20023;-85
2023/06/23 02:18:53;;;;;;;26.33;16.45;;;;;;;;;;10198423;29;20091;-86
2023/06/23 02:23:55;;;;;;;21.23;15.98;;;;;;;;;;10180784;29;20027;-85
2023/06/23 02:28:56;;;;;;;22.27;14.60;;;;;;;;;;10186742;29;20055;-85
2023/06/23 02:33:57;;;;;;;21.05;13.88;;;;;;;;;;10186455;29;20031;-86
2023/06/23 02:38:59;;;;;;;17.83;11.93;;;;;;;;;;10185362;29;20047;-85
2023/06/23 02:44:03;;;;;;;18.02;12.82;;;;;;;;;;10203064;29;20028;-85
2023/06/23 02:49:06;;;;;;;19.40;12.55;;;;;;;;;;10202692;29;20042;-86
2023/06/23 02:54:12;;;;;;;16.40;11.95;;;;;;;;;;10202776;29;20024;-85
2023/06/23 02:59:19;;;;;;;14.63;11.90;;;;;;;;;;10185720;29;20043;-85
2023/06/23 03:04:21;;;;;;;17.13;12.77;;;;;;;;;;10172546;29;20042;-86
2023/06/23 03:09:22;;;;;;;17.83;13.63;;;;;;;;;;10198112;29;20111;-86
2023/06/23 03:14:24;;;;;;;17.13;12.57;;;;;;;;;;10202660;29;20388;-86
2023/06/23 03:19:37;;;;;;;18.33;12.63;;;;;;;;;;10185523;29;20047;-86
2023/06/23 03:24:39;;;;;;;15.68;11.90;;;;;;;;;;10164630;29;20047;-86
2023/06/23 03:29:44;;;;;;;15.50;12.02;;;;;;;;;;10185247;29;20047;-85
2023/06/23 03:34:51;;;;;;;15.80;11.18;;;;;;;;;;10185121;29;20039;-85
2023/06/23 03:39:55;;;;;;;14.98;11.85;;;;;;;;;;10201976;29;20036;-85
2023/06/23 03:44:58;;;;;;;17.25;12.35;;;;;;;;;;10184726;29;20590;-87
2023/06/23 03:50:10;;;;;;;17.08;12.40;;;;;;;;;;10185289;29;20044;-86
2023/06/23 03:55:12;;;;;;;15.15;11.77;;;;;;;;;;10191799;29;20042;-86
2023/06/23 04:00:14;;;;;;;15.77;12.13;;;;;;;;;;10209355;29;20036;-86
2023/06/23 04:05:16;;;;;;;15.23;11.85;;;;;;;;;;10191648;29;20755;-87
2023/06/23 04:10:19;;;;;;;16.00;12.25;;;;;;;;;;10192492;29;20118;-86
2023/06/23 04:15:23;;;;;;;15.13;12.50;;;;;;;;;;10196764;29;20656;-87
2023/06/23 04:20:24;;;;;;;18.52;12.30;;;;;;;;;;10195336;29;20028;-88
2023/06/23 04:25:26;;;;;;;17.45;13.02;;;;;;;;;;10209127;29;20036;-86
2023/06/23 04:30:29;;;;;;;19.70;13.30;;;;;;;;;;10208263;29;20146;-86
2023/06/23 04:35:30;;;;;;;18.13;13.63;;;;;;;;;;10190191;29;20032;-86
2023/06/23 04:40:39;;;;;;;16.10;11.80;;;;;;;;;;10207218;29;20039;-86
2023/06/23 04:45:53;;;;;;;16.33;12.48;;;;;;;;;;10206666;29;20039;-87
2023/06/23 04:50:55;;;;;;;16.55;12.77;;;;;;;;;;10205094;29;20031;-86
2023/06/23 04:55:59;;;;;;;17.27;12.52;;;;;;;;;;10186868;29;20056;-87
2023/06/23 05:01:01;;;;;;;17.50;12.95;;;;;;;;;;10168023;29;20547;-85
2023/06/23 05:06:02;;;;;;;15.85;12.38;;;;;;;;;;10167457;29;20044;-86
2023/06/23 05:11:05;;;;;;;14.70;12.10;;;;;;;;;;10166884;29;20030;-86
2023/06/23 05:16:10;;;;;;;19.67;13.23;;;;;;;;;;10177269;29;20071;-89
2023/06/23 05:21:11;;;;;;;16.00;7.80;;;;;;;;;;10187255;29;20046;-86
2023/06/23 05:26:14;;;;;;;30.15;12.73;;;;;;;;;;10206247;29;20036;-87
2023/06/23 05:31:16;;;;;;;26.35;9.25;;;;;;;;;;10194215;29;20056;-86
2023/06/23 05:36:20;;;;;;;35.20;12.23;;;;;;;;;;10203822;29;20040;-86
2023/06/23 05:41:21;;;;;;;25.55;10.60;;;;;;;;;;10203393;29;20576;-88
2023/06/23 05:46:24;;;;;;;24.33;10.00;;;;;;;;;;10190833;29;20081;-87
2023/06/23 05:51:28;;;;;;;22.33;8.38;;;;;;;;;;10203659;29;20031;-86
2023/06/23 05:56:37;;;;;;;38.13;12.70;;;;;;;;;;10202922;29;20404;-86
2023/06/23 06:01:43;;;;;;;27.70;10.18;;;;;;;;;;10198143;29;20032;-86
2023/06/23 06:06:46;;;;;;;30.08;10.18;;;;;;;;;;10163679;29;20554;-87
2023/06/23 06:11:48;;;;;;;31.48;11.18;;;;;;;;;;10165195;29;20040;-88
2023/06/23 06:16:51;;;;;;;35.22;12.05;;;;;;;;;;10165074;29;20711;-86
2023/06/23 06:21:56;;;;;;;40.63;15.05;;;;;;;;;;10202711;29;20064;-88
2023/06/23 06:27:00;;;;;;;33.55;11.50;;;;;;;;;;10202326;29;20036;-87
2023/06/23 06:32:04;;;;;;;29.05;11.48;;;;;;;;;;10204367;29;20067;-87
2023/06/23 06:37:06;;;;;;;31.33;12.88;;;;;;;;;;10201602;29;20591;-88
2023/06/23 06:42:07;;;;;;;27.25;11.27;;;;;;;;;;10201572;29;20084;-90
2023/06/23 06:47:09;;;;;;;29.27;11.85;;;;;;;;;;10201605;29;20043;-90
2023/06/23 06:52:11;;;;;;;59.80;17.77;;;;;;;;;;10202567;29;20522;-88
2023/06/23 06:57:12;;;;;;;123.30;27.38;;;;;;;;;;10201045;29;20047;-88
2023/06/23 07:02:14;;;;;;;29.80;14.02;;;;;;;;;;10202953;29;20500;-88
2023/06/23 07:07:15;;;;;;;37.80;14.73;;;;;;;;;;10202340;29;20038;-87
2023/06/23 07:12:16;;;;;;;33.03;13.93;;;;;;;;;;10201591;29;20028;-88
2023/06/23 07:17:17;;;;;;;30.35;12.90;;;;;;;;;;10200591;29;20403;-87
2023/06/23 07:22:18;;;;;;;21.80;12.10;;;;;;;;;;10201051;29;20035;-87
2023/06/23 07:27:19;;;;;;;32.72;15.55;;;;;;;;;;10205156;29;20032;-88
2023/06/23 07:32:20;;;;;;;39.80;15.13;;;;;;;;;;10208358;29;20435;-87
2023/06/23 07:37:21;;;;;;;35.00;16.15;;;;;;;;;;10208488;29;20048;-89
2023/06/23 07:42:22;;;;;;;32.75;15.05;;;;;;;;;;10170132;29;20028;-88
2023/06/23 07:47:23;;;;;;;34.70;15.35;;;;;;;;;;10198213;29;20050;-88
2023/06/23 07:52:24;;;;;;;28.90;13.90;;;;;;;;;;10207841;29;20026;-87
2023/06/23 07:57:26;;;;;;;39.63;20.75;;;;;;;;;;10200220;29;20721;-89
2023/06/23 08:02:27;;;;;;;40.80;19.77;;;;;;;;;;10199116;29;20111;-93
2023/06/23 08:07:28;;;;;;;38.78;19.05;;;;;;;;;;10196983;29;20032;-89
2023/06/23 08:12:29;;;;;;;37.55;19.38;;;;;;;;;;10208482;29;20038;-90
2023/06/23 08:17:30;;;;;;;43.00;20.70;;;;;;;;;;10180695;29;20432;-91
2023/06/23 08:22:31;;;;;;;27.88;15.10;;;;;;;;;;10168986;29;20028;-89
2023/06/23 08:27:32;;;;;;;30.67;14.93;;;;;;;;;;10199926;29;20543;-90
2023/06/23 08:32:33;;;;;;;25.38;13.98;;;;;;;;;;10195976;29;20032;-89
2023/06/23 08:37:34;;;;;;;28.15;14.70;;;;;;;;;;10189455;29;20031;-88
2023/06/23 08:42:35;;;;;;;25.75;14.98;;;;;;;;;;10207332;29;20047;-87
2023/06/23 08:47:38;;;;;;;28.67;15.43;;;;;;;;;;10206770;29;20531;-88
2023/06/23 08:52:39;;;;;;;35.13;18.83;;;;;;;;;;10206425;29;20066;-88
2023/06/23 08:57:40;;;;;;;26.98;15.63;;;;;;;;;;10206448;29;20031;-87
2023/06/23 09:02:41;;;;;;;27.67;16.58;;;;;;;;;;10207439;29;20046;-90
2023/06/23 09:07:42;;;;;;;23.55;16.42;;;;;;;;;;10206713;29;20520;-87
2023/06/23 09:13:03;;;;;;;28.60;18.30;;;;;;;;;;10179709;29;20043;-89
2023/06/23 09:18:05;;;;;;;27.73;18.77;;;;;;;;;;10192245;29;20067;-89
2023/06/23 09:23:06;;;;;;;29.45;20.20;;;;;;;;;;10181328;29;20028;-87
2023/06/23 09:28:07;;;;;;;29.27;18.25;;;;;;;;;;10188486;29;20311;-87
2023/06/23 09:33:08;;;;;;;32.45;20.27;;;;;;;;;;10205258;29;20027;-87
2023/06/23 09:38:09;;;;;;;33.92;21.30;;;;;;;;;;10204882;29;20531;-87
2023/06/23 09:43:10;;;;;;;35.42;23.15;;;;;;;;;;10204781;29;20035;-88
2023/06/23 09:48:16;;;;;;;32.13;23.45;;;;;;;;;;10187910;29;20546;-88
2023/06/23 09:53:20;;;;;;;35.50;25.00;;;;;;;;;;10204650;29;20059;-87
2023/06/23 09:58:21;;;;;;;33.35;20.65;;;;;;;;;;10205116;29;20035;-89
2023/06/23 10:03:22;;;;;;;23.85;18.58;;;;;;;;;;10205183;29;20097;-84
2023/06/23 10:08:25;;;;;;;22.85;16.27;;;;;;;;;;10204839;29;20032;-87
2023/06/23 10:13:26;;;;;;;24.80;15.95;;;;;;;;;;10204271;29;20031;-85
2023/06/23 10:18:28;;;;;;;25.52;16.00;;;;;;;;;;10186589;29;20495;-85
2023/06/23 10:23:29;;;;;;;22.83;16.33;;;;;;;;;;10203943;29;20464;-86
2023/06/23 10:28:36;;;;;;;17.30;13.77;;;;;;;;;;10203616;29;20043;-85
2023/06/23 10:33:39;;;;;;;19.73;15.07;;;;;;;;;;10191590;29;20015;-85
2023/06/23 10:38:42;;;;;;;23.90;14.80;;;;;;;;;;10203933;29;20039;-86
2023/06/23 10:43:47;;;;;;;18.33;13.23;;;;;;;;;;10185560;29;20805;-85
2023/06/23 10:48:48;;;;;;;;;;;;;;;;;;10204143;29;20028;-87
2023/06/23 10:53:59;;;;;;;18.52;13.15;;;;;;;;;;10202728;29;19911;-87
2023/06/23 10:59:00;;;;;;;15.52;10.70;;;;;;;;;;10202982;29;20079;-86
2023/06/23 11:04:04;;;;;;;12.90;8.50;;;;;;;;;;10202378;29;20023;-85
2023/06/23 11:09:28;;;;;;;14.10;8.95;;;;;;;;;;10185949;29;20035;-87
2023/06/23 11:14:29;;;;;;;16.23;9.63;;;;;;;;;;10184576;29;20038;-89
2023/06/23 11:19:30;;;;;;;12.18;8.02;;;;;;;;;;10185456;29;20040;-87
2023/06/23 11:24:31;;;;;;;11.18;6.72;;;;;;;;;;10203209;29;20069;-88
2023/06/23 11:29:32;;;;;;;13.40;7.45;;;;;;;;;;10185059;29;20056;-86
2023/06/23 11:34:51;;;;;;;11.13;7.25;;;;;;;;;;10202489;29;20550;-89
2023/06/23 11:39:56;;;;;;;13.90;8.30;;;;;;;;;;10184807;29;20051;-88
2023/06/23 11:44:58;;;;;;;13.23;8.63;;;;;;;;;;10184484;29;20032;-89
2023/06/23 11:50:01;;;;;;;13.40;9.18;;;;;;;;;;10168887;29;20032;-88
2023/06/23 11:55:03;;;;;;;13.05;6.82;;;;;;;;;;10176485;29;20020;-90
2023/06/23 12:00:05;;;;;;;12.43;6.03;;;;;;;;;;10154034;29;20444;-90
2023/06/23 12:05:09;;;;;;;9.73;5.30;;;;;;;;;;10170505;29;20067;-89
2023/06/23 12:10:10;;;;;;;7.95;5.28;;;;;;;;;;10150410;29;20119;-90
2023/06/23 12:15:18;;;;;;;9.93;6.07;;;;;;;;;;10164532;29;20119;-92
2023/06/23 12:20:20;;;;;;;8.38;5.30;;;;;;;;;;10190004;29;20047;-88
2023/06/23 12:25:29;;;;;;;8.13;5.03;;;;;;;;;;10190935;29;20086;-89
2023/06/23 12:30:40;;;;;;;7.55;5.22;;;;;;;;;;10208605;29;20055;-89
2023/06/23 12:35:42;;;;;;;6.68;4.95;;;;;;;;;;10178129;29;20102;-92
2023/06/23 12:40:44;;;;;;;6.45;5.40;;;;;;;;;;10183062;29;20031;-89
2023/06/23 12:45:49;;;;;;;8.55;5.38;;;;;;;;;;10178080;29;20064;-88
2023/06/23 12:50:54;;;;;;;7.93;4.70;;;;;;;;;;10158535;29;20172;-90
2023/06/23 12:55:55;;;;;;;8.57;5.25;;;;;;;;;;10183849;29;20137;-89
2023/06/23 13:00:56;;;;;;;7.53;5.05;;;;;;;;;;10181119;29;20042;-89
2023/06/23 13:05:57;;;;;;;12.40;5.97;;;;;;;;;;10175020;29;20074;-90
2023/06/23 13:10:58;;;;;;;6.65;4.88;;;;;;;;;;10189854;29;20024;-88
2023/06/23 13:16:00;;;;;;;6.15;4.28;;;;;;;;;;10194120;29;20036;-89
2023/06/23 13:21:01;;;;;;;8.68;4.50;;;;;;;;;;10175778;29;20042;-88
2023/06/23 13:26:02;;;;;;;7.95;4.22;;;;;;;;;;10203566;29;20395;-89
2023/06/23 13:31:06;;;;;;;9.35;3.90;;;;;;;;;;10193870;29;20052;-88
2023/06/23 13:36:07;;;;;;;6.75;4.05;;;;;;;;;;10204966;29;20034;-88
2023/06/23 13:41:08;;;;;;;5.40;3.70;;;;;;;;;;10206043;29;20039;-89
2023/06/23 13:46:11;;;;;;;8.82;4.22;;;;;;;;;;10204291;29;20034;-87
2023/06/23 13:51:12;;;;;;;5.43;3.67;;;;;;;;;;10205020;29;20115;-87
2023/06/23 13:56:13;;;;;;;6.68;3.88;;;;;;;;;;10206164;29;20059;-86
2023/06/23 14:01:14;;;;;;;6.28;2.88;;;;;;;;;;10203573;29;20039;-87
2023/06/23 14:06:15;;;;;;;4.57;2.60;;;;;;;;;;10190772;29;20070;-87
2023/06/23 14:11:16;;;;;;;4.75;3.00;;;;;;;;;;10203164;29;20031;-88
2023/06/23 14:16:17;;;;;;;6.53;3.50;;;;;;;;;;10202676;29;20052;-87
2023/06/23 14:21:21;;;;;;;5.85;3.15;;;;;;;;;;10202938;29;20034;-87
2023/06/23 14:26:22;;;;;;;6.15;3.83;;;;;;;;;;10202751;29;20034;-88
2023/06/23 14:31:24;;;;;;;6.82;3.40;;;;;;;;;;10202472;29;20069;-88
2023/06/23 14:36:25;;;;;;;6.88;2.85;;;;;;;;;;10201633;29;20118;-86
2023/06/23 14:41:26;;;;;;;4.80;3.20;;;;;;;;;;10203595;29;20038;-86
2023/06/23 14:46:27;;;;;;;7.10;3.65;;;;;;;;;;10203277;29;20035;-86
2023/06/23 14:51:28;;;;;;;8.40;4.50;;;;;;;;;;10196323;29;20115;-85
2023/06/23 14:56:29;;;;;;;8.20;3.80;;;;;;;;;;10162394;29;20032;-86
2023/06/23 15:01:30;;;;;;;7.43;4.50;;;;;;;;;;10163361;29;20028;-88
2023/06/23 15:06:31;;;;;;;6.35;4.13;;;;;;;;;;10162594;29;20036;-86
2023/06/23 15:11:32;;;;;;;6.50;4.70;;;;;;;;;;10163904;29;20036;-88
2023/06/23 15:16:33;;;;;;;8.40;5.20;;;;;;;;;;10161713;29;20059;-87
2023/06/23 15:21:34;;;;;;;9.20;5.57;;;;;;;;;;10166327;29;20024;-88
2023/06/23 15:26:36;;;;;;;8.50;5.32;;;;;;;;;;10176642;29;20102;-88
2023/06/23 15:31:37;;;;;;;10.70;5.35;;;;;;;;;;10203018;29;20059;-85
2023/06/23 15:36:38;;;;;;;10.75;5.22;;;;;;;;;;10193040;29;20114;-86
2023/06/23 15:41:39;;;;;;;7.13;4.72;;;;;;;;;;10181581;29;20107;-85
2023/06/23 15:46:40;;;;;;;10.35;4.72;;;;;;;;;;10187408;29;20120;-90
2023/06/23 15:51:42;;;;;;;9.27;4.78;;;;;;;;;;10209676;29;20031;-87
2023/06/23 15:56:43;;;;;;;9.85;4.88;;;;;;;;;;10204435;29;20048;-87
2023/06/23 16:01:44;;;;;;;9.73;5.30;;;;;;;;;;10173849;29;20023;-86
2023/06/23 16:06:45;;;;;;;8.48;4.93;;;;;;;;;;10179626;29;20503;-86
2023/06/23 16:11:46;;;;;;;8.43;4.68;;;;;;;;;;10209056;29;20110;-89
2023/06/23 16:16:48;;;;;;;8.82;4.43;;;;;;;;;;10209276;29;20548;-87
2023/06/23 16:21:49;;;;;;;7.22;4.80;;;;;;;;;;10208321;29;20383;-86
2023/06/23 16:26:50;;;;;;;7.82;4.43;;;;;;;;;;10185020;29;20040;-86
2023/06/23 16:31:51;;;;;;;7.32;5.20;;;;;;;;;;10194040;29;20060;-88
2023/06/23 16:36:52;;;;;;;9.18;5.53;;;;;;;;;;10201635;29;20095;-87
2023/06/23 16:41:54;;;;;;;9.45;5.30;;;;;;;;;;10207277;29;20035;-87
2023/06/23 16:46:56;;;;;;;8.10;5.30;;;;;;;;;;10181467;29;20032;-86
2023/06/23 16:51:57;;;;;;;7.20;5.57;;;;;;;;;;10185047;29;20027;-86
2023/06/23 16:56:58;;;;;;;7.82;5.53;;;;;;;;;;10177214;29;20405;-86
2023/06/23 17:01:59;;;;;;;7.30;5.53;;;;;;;;;;10205858;29;20034;-86
2023/06/23 17:07:00;;;;;;;7.38;5.15;;;;;;;;;;10193911;29;20040;-86
2023/06/23 17:12:01;;;;;;;8.25;5.97;;;;;;;;;;10178977;29;20043;-85
2023/06/23 17:17:02;;;;;;;9.00;5.90;;;;;;;;;;10179186;29;20055;-85
2023/06/23 17:22:03;;;;;;;12.63;5.63;;;;;;;;;;10199351;29;20028;-88
2023/06/23 17:27:04;;;;;;;9.07;5.68;;;;;;;;;;10192982;29;20036;-88
2023/06/23 17:32:06;;;;;;;9.00;5.68;;;;;;;;;;10185261;29;20515;-86
2023/06/23 17:37:07;;;;;;;10.18;6.53;;;;;;;;;;10174697;29;20050;-87
2023/06/23 17:42:09;;;;;;;9.25;6.03;;;;;;;;;;10165038;29;20051;-87
2023/06/23 17:47:10;;;;;;;9.43;5.85;;;;;;;;;;10193702;29;20090;-86
2023/06/23 17:52:12;;;;;;;12.93;7.57;;;;;;;;;;10203424;29;20035;-86
2023/06/23 17:57:13;;;;;;;10.25;6.47;;;;;;;;;;10203545;29;20035;-88
2023/06/23 18:02:15;;;;;;;12.05;6.68;;;;;;;;;;10203854;29;20046;-86
2023/06/23 18:07:16;;;;;;;11.50;7.20;;;;;;;;;;10204177;29;20039;-86
2023/06/23 18:12:17;;;;;;;9.38;7.07;;;;;;;;;;10204505;29;20097;-86
2023/06/23 18:17:18;;;;;;;9.43;6.38;;;;;;;;;;10204711;29;20040;-88
2023/06/23 18:22:19;;;;;;;9.50;7.53;;;;;;;;;;10203562;29;20036;-88
2023/06/23 18:27:20;;;;;;;12.45;6.95;;;;;;;;;;10202367;29;20039;-87
2023/06/23 18:32:43;;;;;;;9.75;6.68;;;;;;;;;;10202082;29;20099;-87
2023/06/23 18:37:44;;;;;;;6.47;3.33;;;;;;;;;;10203862;29;20063;-87
2023/06/23 18:42:45;;;;;;;2.92;2.38;;;;;;;;;;10202680;29;20039;-87
2023/06/23 18:47:46;;;;;;;5.03;2.28;;;;;;;;;;10203473;29;20024;-88
2023/06/23 18:52:47;;;;;;;5.93;2.42;;;;;;;;;;10202950;29;20036;-89
2023/06/23 18:57:48;;;;;;;4.85;2.22;;;;;;;;;;10203571;29;20043;-91
2023/06/23 19:02:50;;;;;;;4.25;2.80;;;;;;;;;;10201553;29;20028;-87
2023/06/23 19:07:52;;;;;;;7.20;2.45;;;;;;;;;;10188535;29;20036;-90
2023/06/23 19:12:53;;;;;;;28.42;17.30;;;;;;;;;;10198074;29;20059;-87
2023/06/23 19:17:54;;;;;;;13.65;10.02;;;;;;;;;;10201654;29;20043;-88
2023/06/23 19:22:55;;;;;;;5.03;3.75;;;;;;;;;;10193665;29;20036;-87
2023/06/23 19:27:56;;;;;;;6.18;2.97;;;;;;;;;;10196575;29;20063;-90
2023/06/23 19:32:57;;;;;;;3.80;3.40;;;;;;;;;;10193068;29;20035;-88
2023/06/23 19:37:58;;;;;;;5.63;3.88;;;;;;;;;;10180211;29;20055;-88
2023/06/23 19:42:59;;;;;;;4.53;3.67;;;;;;;;;;10210102;29;20015;-90
2023/06/23 19:48:00;;;;;;;9.43;5.32;;;;;;;;;;10194031;29;20063;-89
2023/06/23 19:53:01;;;;;;;8.73;4.60;;;;;;;;;;10170735;29;20024;-90
2023/06/23 19:58:03;;;;;;;8.57;4.85;;;;;;;;;;10153663;29;20050;-88
2023/06/23 20:03:04;;;;;;;7.18;4.30;;;;;;;;;;10180104;29;20034;-87
2023/06/23 20:08:05;;;;;;;6.88;4.82;;;;;;;;;;10192087;29;20047;-90
2023/06/23 20:13:06;;;;;;;9.52;4.72;;;;;;;;;;10180569;29;20384;-90
2023/06/23 20:18:07;;;;;;;8.68;4.63;;;;;;;;;;10163388;29;20046;-88
2023/06/23 20:23:08;;;;;;;7.00;4.93;;;;;;;;;;10185387;29;20042;-88
2023/06/23 20:28:09;;;;;;;8.02;5.22;;;;;;;;;;10170340;29;20052;-89
2023/06/23 20:33:10;;;;;;;10.43;5.07;;;;;;;;;;10161189;29;20051;-91
2023/06/23 20:38:11;;;;;;;7.63;5.10;;;;;;;;;;10176339;29;20101;-88
2023/06/23 20:43:12;;;;;;;8.05;5.57;;;;;;;;;;10178313;29;20036;-87
2023/06/23 20:48:16;;;;;;;8.18;5.57;;;;;;;;;;10208120;29;20032;-88
2023/06/23 20:53:17;;;;;;;12.05;7.57;;;;;;;;;;10190610;29;20042;-86
2023/06/23 20:58:18;;;;;;;10.63;6.72;;;;;;;;;;10207264;29;20197;-88
2023/06/23 21:03:19;;;;;;;7.55;5.60;;;;;;;;;;10190167;29;20118;-90
2023/06/23 21:08:20;;;;;;;9.98;5.90;;;;;;;;;;10189425;29;20042;-87
2023/06/23 21:13:21;;;;;;;8.50;5.65;;;;;;;;;;10206893;29;20075;-87
2023/06/23 21:18:22;;;;;;;7.75;5.32;;;;;;;;;;10190911;29;20043;-89
2023/06/23 21:23:23;;;;;;;8.25;5.90;;;;;;;;;;10154727;29;20039;-86
2023/06/23 21:28:24;;;;;;;7.47;4.97;;;;;;;;;;10168004;29;20053;-88
2023/06/23 21:33:25;;;;;;;6.90;5.47;;;;;;;;;;10188456;29;20023;-88
2023/06/23 21:38:26;;;;;;;8.90;4.95;;;;;;;;;;10167909;29;20039;-87
2023/06/23 21:43:27;;;;;;;4.35;3.95;;;;;;;;;;10193714;29;20436;-87
2023/06/23 21:48:28;;;;;;;5.40;4.40;;;;;;;;;;10188130;29;20032;-87
2023/06/23 21:53:29;;;;;;;6.15;4.65;;;;;;;;;;10188621;29;20083;-88
2023/06/23 21:58:30;;;;;;;5.57;5.07;;;;;;;;;;10205014;29;20385;-88
2023/06/23 22:03:31;;;;;;;7.45;4.80;;;;;;;;;;10188040;29;20036;-87
2023/06/23 22:08:32;;;;;;;5.50;4.90;;;;;;;;;;10205253;29;20036;-87
2023/06/23 22:13:34;;;;;;;5.25;4.60;;;;;;;;;;10188968;29;20042;-86
2023/06/23 22:18:35;;;;;;;4.75;4.03;;;;;;;;;;10148329;29;20040;-88
2023/06/23 22:23:36;;;;;;;3.78;3.47;;;;;;;;;;10193968;29;20050;-87
2023/06/23 22:28:37;;;;;;;5.57;4.00;;;;;;;;;;10205027;29;20139;-87
2023/06/23 22:33:37;;;;;;;4.47;3.67;;;;;;;;;;10186921;29;20499;-89
2023/06/23 22:38:39;;;;;;;3.95;3.33;;;;;;;;;;10203460;29;20027;-89
2023/06/23 22:43:40;;;;;;;5.22;3.28;;;;;;;;;;10203444;29;20035;-88
2023/06/23 22:48:41;;;;;;;4.88;3.42;;;;;;;;;;10185807;29;20024;-87
2023/06/23 22:53:42;;;;;;;4.10;3.28;;;;;;;;;;10185804;29;20126;-88
2023/06/23 22:58:43;;;;;;;3.60;3.20;;;;;;;;;;10184986;29;20558;-88
2023/06/23 23:03:44;;;;;;;5.35;3.35;;;;;;;;;;10202869;29;20062;-88
2023/06/23 23:08:46;;;;;;;7.18;3.25;;;;;;;;;;10203773;29;20069;-88
2023/06/23 23:13:47;;;;;;;3.55;3.08;;;;;;;;;;10185307;29;20031;-88
2023/06/23 23:18:48;;;;;;;5.35;3.75;;;;;;;;;;10185956;29;20043;-89
2023/06/23 23:23:52;;;;;;;6.20;3.53;;;;;;;;;;10185213;29;20400;-88
2023/06/23 23:28:54;;;;;;;3.67;3.30;;;;;;;;;;10203070;29;20510;-87
2023/06/23 23:33:55;;;;;;;3.40;3.10;;;;;;;;;;10202319;29;20028;-87
2023/06/23 23:38:56;;;;;;;3.63;3.20;;;;;;;;;;10185441;29;20047;-88
2023/06/23 23:43:57;;;;;;;5.47;3.35;;;;;;;;;;10175022;29;20083;-90
2023/06/23 23:48:59;;;;;;;3.65;3.00;;;;;;;;;;10201810;29;20060;-87
2023/06/23 23:54:00;;;;;;;4.57;3.17;;;;;;;;;;10201712;29;20357;-86
2023/06/23 23:59:02;;;;;;;4.88;3.05;;;;;;;;;;10191298;29;20061;-87
